Time;durP1;ratioP1;P1;durP2;ratioP2;P2;SDS_P1;SDS_P2;PMS_P1;PMS_P2;Temp;Humidity;BMP_temperature;BMP_pressure;BME280_temperature;BME280_humidity;BME280_pressure;Samples;Min_cycle;Max_cycle;Signal;HPM_P1;HPM_P2
2021/12/08 00:00:38;;;;;;;9.18;2.30;;;;;;;3.43;88.00;99167.97;5027932;28;20035;-69
2021/12/08 00:03:08;;;;;;;8.95;2.55;;;;;;;3.35;88.68;99167.88;5037504;28;20049;-70
2021/12/08 00:05:34;;;;;;;9.98;2.60;;;;;;;3.35;88.89;99160.19;5026325;28;20029;-69
2021/12/08 00:08:01;;;;;;;9.43;2.25;;;;;;;3.37;89.38;99163.41;5038767;28;20041;-69
2021/12/08 00:13:04;;;;;;;8.23;2.63;;;;;;;3.28;89.80;99154.88;5033178;28;20040;-70
2021/12/08 00:15:38;;;;;;;10.40;4.13;;;;;;;3.38;90.35;99155.56;5029695;28;20416;-69
2021/12/08 00:18:07;;;;;;;11.98;2.55;;;;;;;3.44;89.13;99146.50;5025684;28;20075;-69
2021/12/08 00:20:33;;;;;;;15.68;2.78;;;;;;;3.40;89.79;99155.44;5031305;28;20056;-69
2021/12/08 00:23:00;;;;;;;5.65;2.13;;;;;;;3.42;90.33;99150.97;5037002;28;20048;-69
2021/12/08 00:25:26;;;;;;;9.77;3.55;;;;;;;3.47;90.33;99130.81;5029818;28;20508;-69
2021/12/08 00:27:52;;;;;;;9.15;2.10;;;;;;;3.61;89.09;99142.28;5027519;28;20048;-69
2021/12/08 00:30:17;;;;;;;6.00;2.17;;;;;;;3.60;89.11;99141.47;5026341;28;20045;-69
2021/12/08 00:32:45;;;;;;;9.95;2.78;;;;;;;3.61;89.47;99144.84;5025712;28;20108;-69
2021/12/08 00:35:11;;;;;;;8.77;2.40;;;;;;;3.63;89.47;99135.22;5026726;28;20036;-69
2021/12/08 00:37:37;;;;;;;8.05;2.08;;;;;;;3.66;89.28;99140.84;5026733;28;20047;-69
2021/12/08 00:40:05;;;;;;;9.80;2.13;;;;;;;3.69;88.83;99122.63;5026412;28;20033;-70
2021/12/08 00:42:31;;;;;;;6.43;2.00;;;;;;;3.63;89.01;99135.22;5022276;28;20441;-70
2021/12/08 00:44:59;;;;;;;8.43;1.75;;;;;;;3.66;88.67;99128.03;5027826;28;20033;-69
2021/12/08 00:47:25;;;;;;;7.28;1.83;;;;;;;3.77;87.62;99134.69;5026327;28;20400;-70
2021/12/08 00:49:51;;;;;;;6.95;2.13;;;;;;;3.69;88.28;99124.38;5029090;28;20029;-69
2021/12/08 00:52:16;;;;;;;10.75;1.80;;;;;;;3.72;88.41;99136.88;5028604;28;20033;-69
2021/12/08 00:54:42;;;;;;;6.47;1.40;;;;;;;3.76;88.61;99140.75;5030429;28;20025;-69
2021/12/08 00:57:08;;;;;;;8.95;1.65;;;;;;;3.69;88.62;99145.69;5030649;28;20044;-69
2021/12/08 01:02:08;;;;;;;10.70;2.05;;;;;;;3.72;88.90;99148.91;5032096;28;20072;-66
2021/12/08 01:04:35;;;;;;;3.70;1.73;;;;;;;3.81;88.79;99148.00;5027138;28;20037;-66
2021/12/08 01:07:02;;;;;;;7.68;2.15;;;;;;;3.86;88.26;99132.94;5039563;28;20035;-65
2021/12/08 01:09:29;;;;;;;8.70;1.50;;;;;;;3.87;88.08;99155.06;5037049;28;20083;-66
2021/12/08 01:11:57;;;;;;;8.27;1.63;;;;;;;3.82;89.06;99145.25;5041608;28;20063;-66
2021/12/08 01:14:23;;;;;;;5.65;1.70;;;;;;;3.88;88.48;99138.72;5020996;28;20037;-66
2021/12/08 01:16:51;;;;;;;7.40;1.80;;;;;;;3.91;88.37;99143.56;5039178;28;20103;-66
2021/12/08 01:19:17;;;;;;;4.20;1.75;;;;;;;3.95;88.85;99151.75;5036720;28;20402;-66
2021/12/08 01:21:42;;;;;;;7.80;1.63;;;;;;;3.96;89.45;99156.72;5012724;28;20798;-66
2021/12/08 01:24:08;;;;;;;10.07;1.75;;;;;;;3.95;89.15;99164.56;5031617;28;20025;-66
2021/12/08 01:26:33;;;;;;;9.27;1.48;;;;;;;3.93;88.78;99157.03;5033865;28;20065;-66
2021/12/08 01:28:59;;;;;;;5.82;1.55;;;;;;;3.90;89.31;99157.34;5031942;28;20025;-66
2021/12/08 01:31:25;;;;;;;3.15;1.30;;;;;;;3.95;89.38;99151.75;5026198;28;20037;-66
2021/12/08 01:33:51;;;;;;;9.68;1.70;;;;;;;4.01;88.79;99158.81;5026960;28;20026;-66
2021/12/08 01:36:17;;;;;;;3.58;1.40;;;;;;;4.04;88.96;99166.22;5017847;28;20132;-65
2021/12/08 01:38:43;;;;;;;5.60;1.42;;;;;;;4.00;89.23;99165.72;5029058;28;20114;-66
2021/12/08 01:41:09;;;;;;;2.75;1.17;;;;;;;3.97;89.40;99167.78;5034844;28;20021;-66
2021/12/08 01:43:43;;;;;;;3.97;0.90;;;;;;;4.02;88.96;99163.00;5041592;28;20683;-66
2021/12/08 01:46:12;;;;;;;6.22;1.35;;;;;;;4.10;89.54;99171.53;5024913;28;20658;-65
2021/12/08 01:48:40;;;;;;;3.13;1.42;;;;;;;4.01;89.60;99161.38;5029778;28;20479;-65
2021/12/08 01:51:15;;;;;;;4.80;1.40;;;;;;;4.05;89.91;99167.81;5026856;28;20035;-66
2021/12/08 01:53:45;;;;;;;2.50;1.10;;;;;;;4.15;89.05;99172.84;5001102;28;20022;-66
2021/12/08 01:56:11;;;;;;;2.72;1.30;;;;;;;4.09;88.92;99158.88;5024472;28;20041;-66
2021/12/08 01:58:38;;;;;;;4.03;1.20;;;;;;;4.10;89.39;99168.16;5014250;28;20072;-66
2021/12/08 02:01:10;;;;;;;3.42;1.17;;;;;;;4.09;89.49;99171.69;5041076;28;20402;-66
2021/12/08 02:03:38;;;;;;;4.03;1.10;;;;;;;4.13;89.79;99178.13;5028159;28;20025;-66
2021/12/08 02:06:06;;;;;;;2.15;1.10;;;;;;;4.25;88.66;99171.75;4998802;28;20041;-66
2021/12/08 02:08:33;;;;;;;5.93;0.90;;;;;;;4.28;88.90;99176.59;5019299;28;20755;-65
2021/12/08 02:11:00;;;;;;;1.75;0.90;;;;;;;4.22;89.77;99172.06;5027344;28;20391;-66
2021/12/08 02:13:28;;;;;;;2.60;1.17;;;;;;;4.31;89.62;99180.59;5027110;28;20033;-65
2021/12/08 02:15:54;;;;;;;2.70;0.95;;;;;;;4.38;88.84;99178.22;5039988;28;20041;-65
2021/12/08 02:18:19;;;;;;;3.47;0.98;;;;;;;4.38;88.60;99176.44;5028700;28;20048;-66
2021/12/08 02:20:48;;;;;;;0.98;0.77;;;;;;;4.35;88.63;99179.34;5029772;28;20034;-66
2021/12/08 02:23:15;;;;;;;4.63;0.90;;;;;;;4.36;89.48;99182.72;5009719;28;20037;-66
2021/12/08 02:25:41;;;;;;;7.72;1.05;;;;;;;4.32;89.38;99183.97;5033610;28;20396;-66
2021/12/08 02:28:09;;;;;;;4.32;0.90;;;;;;;4.30;89.65;99186.69;5033391;28;20036;-66
2021/12/08 02:30:45;;;;;;;2.83;0.90;;;;;;;4.33;89.80;99183.00;5038633;28;20079;-66
2021/12/08 02:49:48;;;;;;;1.05;0.70;;;;;;;4.51;89.11;99200.91;5013583;28;20124;-66
2021/12/08 02:52:15;;;;;;;1.10;0.70;;;;;;;4.54;88.82;99203.13;5022107;28;20130;-65
2021/12/08 02:54:47;;;;;;;11.20;0.90;;;;;;;4.45;89.36;99200.53;5021337;28;20454;-65
2021/12/08 02:57:14;;;;;;;3.13;0.85;;;;;;;4.48;89.19;99209.69;5029489;28;20037;-65
2021/12/08 02:59:44;;;;;;;3.67;1.08;;;;;;;4.42;89.56;99210.31;5024980;28;20029;-65
2021/12/08 03:02:10;;;;;;;2.80;0.88;;;;;;;4.46;89.60;99204.72;5029704;28;20022;-66
2021/12/08 03:04:37;;;;;;;1.42;0.82;;;;;;;4.52;89.38;99208.44;5020469;28;20040;-64
2021/12/08 03:07:03;;;;;;;2.42;0.95;;;;;;;4.57;89.12;99216.47;5015966;28;20033;-65
2021/12/08 03:09:29;;;;;;;2.53;0.77;;;;;;;4.48;89.50;99218.22;5014412;28;20033;-64
2021/12/08 03:11:57;;;;;;;1.40;0.90;;;;;;;4.43;90.44;99222.22;5026392;28;20047;-66
2021/12/08 03:14:25;;;;;;;6.40;0.98;;;;;;;4.63;89.51;99220.16;5027946;28;20033;-66
2021/12/08 03:16:54;;;;;;;2.40;1.00;;;;;;;4.44;90.16;99222.03;5016129;28;20036;-65
2021/12/08 03:19:22;;;;;;;2.05;0.90;;;;;;;4.51;90.23;99218.88;5004629;28;20066;-65
2021/12/08 03:21:48;;;;;;;2.05;0.85;;;;;;;4.44;90.20;99223.78;4989441;28;20025;-65
2021/12/08 03:24:36;;;;;;;1.67;1.10;;;;;;;4.34;90.76;99225.69;5010495;28;20057;-65
2021/12/08 03:29:39;;;;;;;2.05;0.90;;;;;;;4.42;91.05;99231.66;5043839;28;20029;-65
2021/12/08 03:32:11;;;;;;;2.92;1.00;;;;;;;4.33;91.53;99236.91;5034952;28;20033;-66
2021/12/08 03:34:42;;;;;;;1.88;0.77;;;;;;;4.37;91.37;99235.63;5004981;28;20050;-65
2021/12/08 03:37:09;;;;;;;1.92;0.98;;;;;;;4.25;91.78;99238.47;5019866;28;20025;-66
2021/12/08 03:39:39;;;;;;;1.90;0.88;;;;;;;4.44;91.70;99237.44;5028984;28;20434;-66
2021/12/08 03:42:05;;;;;;;3.38;1.10;;;;;;;4.36;91.27;99239.97;5028376;28;20600;-66
2021/12/08 03:44:31;;;;;;;3.10;1.00;;;;;;;4.47;91.22;99239.69;5012106;28;20028;-65
2021/12/08 03:47:01;;;;;;;3.55;1.10;;;;;;;4.39;91.45;99242.25;5028894;28;20033;-66
2021/12/08 03:49:30;;;;;;;4.10;1.17;;;;;;;4.53;90.42;99234.91;5019199;28;20041;-66
2021/12/08 03:52:00;;;;;;;4.90;1.00;;;;;;;4.40;90.80;99241.25;5029503;28;20037;-66
2021/12/08 03:54:26;;;;;;;12.30;1.58;;;;;;;4.39;91.83;99246.53;5017447;28;20048;-66
2021/12/08 03:56:52;;;;;;;9.30;1.42;;;;;;;4.43;91.33;99242.75;5031455;28;20022;-65
2021/12/08 03:59:17;;;;;;;7.25;1.60;;;;;;;4.45;92.12;99244.19;5015175;28;20705;-65
2021/12/08 04:01:43;;;;;;;4.50;1.25;;;;;;;4.38;92.38;99253.44;5025377;28;20042;-64
2021/12/08 04:04:10;;;;;;;7.05;1.40;;;;;;;4.57;92.07;99249.84;5012632;28;20507;-65
2021/12/08 04:06:45;;;;;;;15.20;1.88;;;;;;;4.58;91.20;99245.53;5028909;28;20561;-66
2021/12/08 04:09:25;;;;;;;8.20;1.95;;;;;;;4.62;91.01;99250.19;5012242;28;20482;-65
2021/12/08 04:11:52;;;;;;;6.40;1.33;;;;;;;4.57;91.06;99247.28;5005180;28;20040;-65
2021/12/08 04:14:21;;;;;;;6.25;1.45;;;;;;;4.48;91.76;99233.63;5018182;28;20025;-66
2021/12/08 04:16:55;;;;;;;11.43;1.75;;;;;;;4.66;91.08;99237.84;5030540;28;20061;-66
2021/12/08 04:19:22;;;;;;;12.70;1.90;;;;;;;4.55;91.02;99245.81;5010333;28;20036;-65
2021/12/08 04:21:50;;;;;;;7.97;1.40;;;;;;;4.59;92.07;99249.69;5028756;28;20025;-65
2021/12/08 04:24:16;;;;;;;9.70;1.40;;;;;;;4.51;92.11;99252.22;5026558;28;20033;-65
2021/12/08 04:27:04;;;;;;;7.35;1.40;;;;;;;4.60;91.43;99249.53;5030410;28;20032;-66
2021/12/08 04:29:33;;;;;;;8.57;1.40;;;;;;;4.55;91.25;99253.53;5012454;28;20033;-65
2021/12/08 04:32:01;;;;;;;13.93;1.65;;;;;;;4.58;91.51;99243.75;5012063;28;20115;-65
2021/12/08 04:34:32;;;;;;;11.68;1.80;;;;;;;4.62;91.26;99249.38;5029068;28;20594;-66
2021/12/08 04:37:03;;;;;;;6.28;1.60;;;;;;;4.57;91.53;99249.84;5018109;28;20132;-65
2021/12/08 04:39:50;;;;;;;6.82;1.30;;;;;;;4.62;91.82;99255.31;5020636;28;20094;-65
2021/12/08 04:42:21;;;;;;;12.00;2.08;;;;;;;4.59;91.55;99268.47;4998387;28;20044;-65
2021/12/08 04:44:53;;;;;;;7.63;1.30;;;;;;;4.48;91.89;99269.56;5018743;28;20544;-65
2021/12/08 04:47:32;;;;;;;13.48;1.77;;;;;;;4.40;92.16;99271.28;5030479;28;20048;-65
2021/12/08 04:52:52;;;;;;;7.70;1.40;;;;;;;4.27;92.29;99266.53;5028513;28;20033;-65
2021/12/08 05:06:49;;;;;;;12.60;2.15;;;;;;;4.32;90.57;99300.25;5029887;28;20030;-66
2021/12/08 05:09:14;;;;;;;;;;;;;;;4.17;90.85;99304.34;5030187;28;20041;-66
2021/12/08 05:11:46;;;;;;;8.95;1.63;;;;;;;4.24;90.92;99305.34;5030789;28;19913;-65
2021/12/08 05:14:20;;;;;;;4.88;1.70;;;;;;;4.28;90.96;99304.91;5021768;28;20156;-65
2021/12/08 05:16:49;;;;;;;11.95;2.20;;;;;;;4.17;90.25;99304.34;5028303;28;20033;-66
2021/12/08 05:19:18;;;;;;;12.15;2.20;;;;;;;4.32;89.39;99305.41;5028151;28;20036;-66
2021/12/08 05:21:57;;;;;;;12.90;1.92;;;;;;;4.31;89.59;99298.63;5029992;28;20495;-65
2021/12/08 05:24:32;;;;;;;10.52;2.10;;;;;;;4.39;88.89;99300.44;5028538;28;20052;-66
2021/12/08 05:27:11;;;;;;;9.70;1.73;;;;;;;4.34;89.34;99303.47;5014768;28;20021;-66
2021/12/08 05:29:46;;;;;;;10.55;1.40;;;;;;;4.28;89.69;99304.09;5028860;28;20057;-66
2021/12/08 05:32:12;;;;;;;14.60;2.15;;;;;;;4.34;89.34;99295.00;5030624;28;20038;-66
2021/12/08 05:34:39;;;;;;;7.88;1.40;;;;;;;4.47;88.91;99311.56;5027827;28;20475;-65
2021/12/08 05:37:06;;;;;;;9.90;1.88;;;;;;;4.34;88.76;99307.81;5018060;28;20128;-66
2021/12/08 05:39:33;;;;;;;10.77;1.70;;;;;;;4.28;89.05;99307.47;5027129;28;20558;-66
2021/12/08 05:42:05;;;;;;;8.77;1.50;;;;;;;4.21;89.58;99308.22;5011894;28;20487;-65
2021/12/08 05:44:32;;;;;;;9.45;1.50;;;;;;;4.20;90.40;99307.41;5019616;28;20083;-66
2021/12/08 05:47:00;;;;;;;16.90;2.00;;;;;;;4.19;89.49;99307.56;5018910;28;20035;-66
2021/12/08 05:49:27;;;;;;;19.42;2.35;;;;;;;4.24;89.51;99311.28;5021851;28;20674;-65
2021/12/08 05:51:54;;;;;;;11.55;3.03;;;;;;;4.10;89.79;99322.09;5031668;28;20040;-66
2021/12/08 05:54:32;;;;;;;13.30;2.30;;;;;;;4.20;90.03;99322.00;5027993;28;20075;-65
2021/12/08 05:57:01;;;;;;;13.10;1.80;;;;;;;4.20;90.15;99327.13;5011673;28;20072;-66
2021/12/08 05:59:26;;;;;;;13.55;1.83;;;;;;;4.21;89.35;99334.69;5011802;28;20040;-65
2021/12/08 06:02:03;;;;;;;18.13;2.50;;;;;;;4.34;88.54;99329.16;4993960;28;20037;-65
2021/12/08 06:04:30;;;;;;;8.27;1.70;;;;;;;4.34;88.52;99329.16;5011697;28;20558;-65
2021/12/08 06:06:57;;;;;;;16.25;1.75;;;;;;;4.35;87.34;99333.34;5009379;28;20492;-66
2021/12/08 06:09:25;;;;;;;18.27;1.92;;;;;;;4.32;87.47;99336.19;5009884;28;20045;-66
2021/12/08 06:11:52;;;;;;;11.23;2.05;;;;;;;4.51;85.36;99327.47;5023158;28;20071;-66
2021/12/08 06:14:19;;;;;;;16.73;1.45;;;;;;;4.49;85.47;99325.06;5031645;28;20032;-65
2021/12/08 06:16:48;;;;;;;15.88;2.22;;;;;;;4.53;85.34;99333.25;5017710;28;20052;-66
2021/12/08 06:19:15;;;;;;;5.00;1.35;;;;;;;4.34;85.84;99334.28;5014166;28;20044;-65
2021/12/08 06:21:41;;;;;;;12.82;2.00;;;;;;;4.35;86.20;99345.34;5016726;28;20053;-65
2021/12/08 06:24:10;;;;;;;7.15;1.90;;;;;;;4.24;86.73;99354.13;5013430;28;20038;-64
2021/12/08 06:26:37;;;;;;;11.02;2.85;;;;;;;4.16;87.34;99347.13;5029446;28;20444;-65
2021/12/08 06:29:05;;;;;;;9.45;2.08;;;;;;;4.32;86.60;99341.31;5017250;28;20053;-66
2021/12/08 06:31:33;;;;;;;9.45;1.70;;;;;;;4.24;87.24;99352.34;5028657;28;20033;-66
2021/12/08 06:33:59;;;;;;;20.83;2.28;;;;;;;4.12;87.51;99353.53;5012791;28;20030;-65
2021/12/08 06:36:29;;;;;;;17.10;2.17;;;;;;;4.25;87.46;99355.72;5025948;28;20051;-65
2021/12/08 06:38:55;;;;;;;11.50;1.88;;;;;;;4.34;87.11;99352.25;5032456;28;20037;-65
2021/12/08 06:41:26;;;;;;;14.50;1.80;;;;;;;4.16;87.45;99359.97;5029875;28;20030;-66
2021/12/08 06:44:04;;;;;;;13.00;2.33;;;;;;;4.02;88.08;99365.66;5028207;28;20071;-66
2021/12/08 06:46:31;;;;;;;12.30;1.80;;;;;;;4.10;88.11;99363.13;4999375;28;20032;-65
2021/12/08 06:48:59;;;;;;;12.52;1.98;;;;;;;4.20;87.35;99374.13;5034133;28;20036;-65
2021/12/08 06:51:38;;;;;;;9.73;1.67;;;;;;;4.22;86.03;99376.53;5027660;28;20065;-65
2021/12/08 06:54:12;;;;;;;16.88;1.88;;;;;;;4.34;85.08;99369.41;5032471;28;20044;-64
2021/12/08 06:56:42;;;;;;;10.75;1.88;;;;;;;4.25;85.76;99381.38;4998054;28;20567;-66
2021/12/08 06:59:15;;;;;;;9.38;1.50;;;;;;;4.07;86.33;99384.78;5013306;28;20033;-65
2021/12/08 07:02:02;;;;;;;12.88;2.05;;;;;;;4.05;86.44;99381.56;4987922;23;20559;-69
2021/12/08 07:04:34;;;;;;;9.57;2.15;;;;;;;4.06;86.67;99378.03;4969825;28;20057;-69
2021/12/08 07:07:14;;;;;;;8.68;1.50;;;;;;;3.95;87.04;99382.59;4968026;28;20087;-68
2021/12/08 07:09:42;;;;;;;16.73;2.30;;;;;;;3.95;87.63;99387.72;4973831;28;20022;-69
2021/12/08 07:12:17;;;;;;;12.07;2.08;;;;;;;4.26;86.10;99390.69;4971371;28;20030;-69
2021/12/08 07:14:46;;;;;;;14.45;2.42;;;;;;;4.16;85.77;99385.63;4963690;28;20034;-69
2021/12/08 07:17:18;;;;;;;9.80;1.45;;;;;;;4.15;85.85;99390.94;4966881;28;20080;-69
2021/12/08 07:19:49;;;;;;;9.38;2.10;;;;;;;4.03;86.49;99398.03;4967528;28;20114;-69
2021/12/08 07:22:24;;;;;;;9.27;2.00;;;;;;;4.08;85.95;99386.38;4967062;28;20042;-69
2021/12/08 07:24:52;;;;;;;8.73;1.70;;;;;;;3.95;86.72;99391.06;4967401;28;20034;-69
2021/12/08 07:27:23;;;;;;;14.63;2.63;;;;;;;3.92;86.68;99396.50;4967439;28;20034;-69
2021/12/08 07:29:49;;;;;;;9.73;3.42;;;;;;;4.03;86.08;99387.75;4967051;28;20397;-69
2021/12/08 07:32:20;;;;;;;10.68;3.05;;;;;;;4.04;85.65;99389.41;4965160;28;20153;-68
2021/12/08 07:34:46;;;;;;;46.38;13.13;;;;;;;4.03;86.03;99398.84;4968790;28;20605;-68
2021/12/08 07:37:20;;;;;;;34.50;8.18;;;;;;;3.95;85.98;99400.53;4967801;28;20038;-69
2021/12/08 07:39:59;;;;;;;23.55;5.78;;;;;;;3.87;86.69;99391.81;4967682;28;20042;-69
2021/12/08 07:42:32;;;;;;;15.98;3.38;;;;;;;3.78;86.21;99399.59;4971155;28;20038;-69
2021/12/08 07:45:01;;;;;;;26.05;7.03;;;;;;;3.73;87.17;99400.03;4967404;28;20042;-69
2021/12/08 07:47:29;;;;;;;196.27;44.75;;;;;;;3.82;86.17;99400.91;4970019;28;20665;-68
2021/12/08 07:50:04;;;;;;;112.97;29.15;;;;;;;3.88;85.91;99406.25;4952391;28;20113;-69
2021/12/08 07:52:34;;;;;;;85.85;24.88;;;;;;;3.88;85.57;99423.38;4949003;28;20073;-69
2021/12/08 07:55:02;;;;;;;32.67;8.52;;;;;;;3.88;84.77;99436.22;4968417;28;20027;-68
2021/12/08 07:57:34;;;;;;;17.45;4.65;;;;;;;3.79;85.65;99435.34;4951360;28;20632;-69
2021/12/08 08:00:22;;;;;;;23.05;6.65;;;;;;;3.79;85.50;99440.47;4966818;28;20065;-69
2021/12/08 08:02:48;;;;;;;26.40;6.68;;;;;;;3.83;85.53;99441.78;4967640;28;20042;-69
2021/12/08 08:05:16;;;;;;;24.08;6.32;;;;;;;3.82;85.66;99441.94;4971863;28;20049;-69
2021/12/08 08:07:44;;;;;;;16.83;4.15;;;;;;;3.82;85.24;99435.03;4968800;28;20112;-69
2021/12/08 08:10:14;;;;;;;14.10;3.35;;;;;;;3.71;86.06;99445.50;4967781;28;20023;-68
2021/12/08 08:12:43;;;;;;;12.25;4.05;;;;;;;3.69;86.75;99449.97;4966038;28;20034;-69
2021/12/08 08:15:15;;;;;;;10.35;2.95;;;;;;;3.70;86.17;99446.47;4967722;28;20102;-69
2021/12/08 08:17:45;;;;;;;15.95;2.97;;;;;;;3.72;86.23;99452.25;4952989;28;20031;-69
2021/12/08 08:20:34;;;;;;;12.52;3.25;;;;;;;3.72;86.18;99454.81;4971700;28;20034;-69
2021/12/08 08:23:00;;;;;;;9.63;2.67;;;;;;;3.66;86.48;99447.72;4973566;28;20046;-69
2021/12/08 08:25:34;;;;;;;17.92;2.63;;;;;;;3.65;86.61;99449.44;4958186;28;20165;-68
2021/12/08 08:28:02;;;;;;;14.32;5.25;;;;;;;3.72;86.46;99446.31;4970598;28;20485;-69
2021/12/08 08:30:32;;;;;;;27.73;7.25;;;;;;;3.86;86.32;99448.38;4967878;28;20085;-69
2021/12/08 08:32:58;;;;;;;16.08;4.72;;;;;;;3.77;86.22;99454.38;4975679;28;20035;-69
2021/12/08 08:35:37;;;;;;;13.70;3.20;;;;;;;3.80;86.13;99460.00;4953985;28;20054;-69
2021/12/08 08:38:08;;;;;;;16.73;4.18;;;;;;;3.80;86.20;99465.16;4967537;28;20074;-69
2021/12/08 08:40:44;;;;;;;13.95;2.75;;;;;;;3.97;85.29;99463.56;4981097;28;20034;-68
2021/12/08 08:43:10;;;;;;;7.63;1.80;;;;;;;3.86;85.36;99466.31;4969802;28;20584;-68
2021/12/08 08:46:06;;;;;;;6.97;1.73;;;;;;;3.90;85.56;99470.22;4965557;28;20118;-69
2021/12/08 08:48:40;;;;;;;10.02;2.55;;;;;;;3.95;84.93;99470.59;4966660;28;20039;-69
2021/12/08 08:51:17;;;;;;;15.20;2.58;;;;;;;4.05;84.95;99475.66;4965189;28;20121;-69
2021/12/08 08:53:45;;;;;;;11.27;3.63;;;;;;;4.08;84.97;99473.59;4967424;28;20558;-69
2021/12/08 08:56:20;;;;;;;18.17;2.45;;;;;;;4.10;85.01;99492.22;4949325;28;20408;-68
2021/12/08 08:58:50;;;;;;;14.18;2.22;;;;;;;4.06;85.22;99490.09;4974743;28;20035;-68
2021/12/08 09:01:34;;;;;;;11.52;2.45;;;;;;;4.10;84.63;99494.78;4964453;28;20062;-68
2021/12/08 09:04:26;;;;;;;21.25;2.25;;;;;;;4.15;84.38;99481.53;4963999;28;20041;-69
2021/12/08 09:06:57;;;;;;;10.38;2.25;;;;;;;4.24;83.54;99483.22;4964651;28;20689;-69
2021/12/08 09:09:26;;;;;;;16.98;2.75;;;;;;;4.29;83.51;99473.31;4971726;28;20039;-69
2021/12/08 09:11:57;;;;;;;11.40;2.28;;;;;;;4.39;83.63;99482.69;4970125;28;20536;-68
2021/12/08 09:14:36;;;;;;;12.80;2.10;;;;;;;4.34;82.85;99479.78;4970121;28;20054;-68
2021/12/08 09:17:17;;;;;;;15.05;2.55;;;;;;;4.44;82.74;99486.41;4970572;28;20042;-69
2021/12/08 09:20:12;;;;;;;9.57;2.35;;;;;;;4.40;82.47;99487.66;4986888;28;20026;-69
2021/12/08 09:22:56;;;;;;;8.35;2.30;;;;;;;4.33;83.49;99490.97;4974626;28;20081;-68
2021/12/08 09:25:45;;;;;;;15.93;2.75;;;;;;;4.41;83.60;99489.28;4987889;28;20440;-69
2021/12/08 09:28:21;;;;;;;14.85;2.55;;;;;;;4.43;83.31;99495.09;4988074;28;20444;-68
2021/12/08 09:30:57;;;;;;;14.02;3.25;;;;;;;4.37;83.78;99482.03;4984579;28;20319;-68
2021/12/08 09:33:28;;;;;;;12.48;2.70;;;;;;;4.48;82.87;99472.34;4997665;28;20031;-68
2021/12/08 09:36:03;;;;;;;12.85;2.28;;;;;;;4.54;82.45;99463.25;4983975;28;20034;-68
2021/12/08 09:38:33;;;;;;;12.40;2.42;;;;;;;4.53;82.39;99455.69;4960466;28;20107;-69
2021/12/08 09:41:04;;;;;;;13.23;2.28;;;;;;;4.48;82.60;99464.66;4986058;28;20081;-68
2021/12/08 09:43:47;;;;;;;7.70;2.28;;;;;;;4.62;81.85;99468.44;4982561;28;20053;-68
2021/12/08 09:46:24;;;;;;;14.90;2.80;;;;;;;4.71;80.29;99473.63;4986302;28;20046;-71
2021/12/08 09:48:50;;;;;;;7.55;1.52;;;;;;;4.75;79.22;99485.22;4985939;28;20121;-68
2021/12/08 09:51:19;;;;;;;7.72;1.90;;;;;;;4.71;80.22;99483.88;4985361;28;20089;-69
2021/12/08 09:53:46;;;;;;;12.80;2.17;;;;;;;4.85;79.83;99475.66;4987601;28;20172;-69
2021/12/08 09:56:12;;;;;;;13.63;2.50;;;;;;;4.81;79.76;99482.84;4966570;28;20074;-68
2021/12/08 09:58:39;;;;;;;10.57;1.52;;;;;;;4.82;79.80;99492.19;4981972;28;20503;-68
2021/12/08 10:01:06;;;;;;;11.57;1.80;;;;;;;5.02;78.25;99490.19;4979824;28;20767;-69
2021/12/08 10:03:33;;;;;;;22.45;2.83;;;;;;;4.98;79.30;99491.47;4965996;28;20440;-69
2021/12/08 10:06:00;;;;;;;11.48;3.08;;;;;;;5.02;78.92;99495.34;4986240;28;20088;-69
2021/12/08 10:08:26;;;;;;;10.85;2.05;;;;;;;4.92;79.38;99498.97;4979874;28;20050;-68
2021/12/08 10:10:51;;;;;;;16.92;2.70;;;;;;;4.85;80.35;99511.59;4982876;28;20034;-68
2021/12/08 10:13:18;;;;;;;8.15;2.20;;;;;;;4.97;79.66;99500.16;4986143;28;20030;-68
2021/12/08 10:15:44;;;;;;;10.75;2.33;;;;;;;4.91;79.14;99508.44;4983000;28;20073;-68
2021/12/08 10:18:09;;;;;;;12.05;1.73;;;;;;;5.02;77.40;99508.19;4979889;28;20066;-69
2021/12/08 10:20:45;;;;;;;11.68;2.35;;;;;;;5.01;78.04;99505.75;4981502;28;20488;-68
2021/12/08 10:23:13;;;;;;;4.95;1.40;;;;;;;5.10;76.62;99504.84;4983985;28;20034;-70
2021/12/08 10:25:44;;;;;;;12.65;2.25;;;;;;;5.02;78.22;99507.38;4975858;28;20030;-68
2021/12/08 10:28:18;;;;;;;9.48;1.65;;;;;;;5.14;76.87;99503.63;4979762;28;20052;-68
2021/12/08 10:30:53;;;;;;;7.35;1.65;;;;;;;5.11;77.13;99496.19;4986356;28;20529;-69
2021/12/08 10:36:34;;;;;;;11.48;1.90;;;;;;;5.16;76.29;99498.31;4996781;28;20047;-68
2021/12/08 10:39:16;;;;;;;17.30;4.13;;;;;;;5.16;77.51;99501.69;4981513;28;20062;-68
2021/12/08 10:41:45;;;;;;;10.25;2.17;;;;;;;5.30;76.46;99496.94;4978154;28;20039;-69
2021/12/08 10:44:10;;;;;;;14.10;3.80;;;;;;;5.20;76.86;99500.44;4987786;28;20395;-68
2021/12/08 10:46:38;;;;;;;12.70;3.08;;;;;;;5.32;75.69;99503.53;4988679;28;20030;-68
2021/12/08 10:49:19;;;;;;;9.23;1.40;;;;;;;5.30;75.42;99502.88;4986900;28;20380;-69
2021/12/08 10:54:32;;;;;;;10.15;1.67;;;;;;;5.41;75.29;99504.38;4986173;28;20736;-70
2021/12/08 10:57:00;;;;;;;7.78;1.80;;;;;;;5.46;75.42;99505.53;4980348;28;20023;-69
2021/12/08 10:59:53;;;;;;;8.70;1.20;;;;;;;5.43;76.13;99507.59;4988250;28;20034;-69
2021/12/08 11:02:59;;;;;;;14.32;2.55;;;;;;;5.51;75.23;99507.63;4981412;28;20043;-69
2021/12/08 11:05:24;;;;;;;5.95;1.08;;;;;;;5.41;75.16;99502.63;4982135;28;20401;-68
2021/12/08 11:08:11;;;;;;;16.15;1.52;;;;;;;5.40;75.68;99507.91;4981900;28;20133;-68
2021/12/08 11:10:59;;;;;;;11.13;1.98;;;;;;;5.37;76.09;99514.16;4981532;28;20515;-68
2021/12/08 11:13:31;;;;;;;5.97;1.25;;;;;;;5.38;75.26;99520.09;4980728;28;20050;-68
2021/12/08 11:16:20;;;;;;;12.43;1.42;;;;;;;5.37;75.71;99521.06;4985927;28;20046;-69
2021/12/08 11:18:48;;;;;;;12.20;1.58;;;;;;;5.43;74.85;99536.69;4984263;28;20048;-69
2021/12/08 11:21:20;;;;;;;14.00;1.63;;;;;;;5.40;75.97;99541.31;4984676;28;20455;-68
2021/12/08 11:23:49;;;;;;;8.85;1.45;;;;;;;5.53;75.29;99541.72;4966830;28;20046;-68
2021/12/08 11:26:40;;;;;;;10.13;1.63;;;;;;;5.49;74.84;99545.56;4980431;28;20523;-68
2021/12/08 11:29:09;;;;;;;17.55;2.08;;;;;;;5.59;74.36;99548.81;4988083;28;20053;-68
2021/12/08 11:31:38;;;;;;;11.77;2.10;;;;;;;5.45;75.35;99549.41;4980581;28;20049;-68
2021/12/08 11:34:12;;;;;;;10.95;1.67;;;;;;;5.51;74.82;99540.25;4985854;28;20088;-69
2021/12/08 11:36:39;;;;;;;10.60;1.50;;;;;;;5.62;74.29;99538.22;4985773;28;20065;-68
2021/12/08 11:39:32;;;;;;;16.60;2.13;;;;;;;5.53;75.63;99528.84;4987539;28;20562;-68
2021/12/08 11:41:59;;;;;;;;;;;;;;;5.63;74.27;99537.28;4956711;28;20042;-68
2021/12/08 11:44:27;;;;;;;9.93;2.17;;;;;;;5.56;75.06;99528.56;4983670;28;19925;-68
2021/12/08 11:46:58;;;;;;;13.52;2.33;;;;;;;5.55;76.19;99531.28;4985849;28;20100;-68
2021/12/08 11:49:25;;;;;;;15.48;2.03;;;;;;;5.72;74.22;99527.00;4986532;28;20099;-68
2021/12/08 11:52:13;;;;;;;8.90;1.52;;;;;;;5.61;74.77;99516.03;4981461;28;20042;-68
2021/12/08 11:54:50;;;;;;;7.18;1.33;;;;;;;5.73;73.46;99516.56;4979986;28;20033;-68
2021/12/08 11:57:18;;;;;;;13.77;1.73;;;;;;;5.82;74.21;99513.06;4981834;28;20408;-68
2021/12/08 12:00:02;;;;;;;13.23;1.55;;;;;;;5.68;75.62;99508.50;4983152;28;20036;-69
2021/12/08 12:02:44;;;;;;;13.07;1.60;;;;;;;5.72;76.22;99520.09;4987055;28;20042;-68
2021/12/08 12:05:17;;;;;;;11.82;1.75;;;;;;;5.81;73.66;99529.44;4972730;28;20031;-68
2021/12/08 12:07:43;;;;;;;6.90;1.42;;;;;;;5.89;73.31;99520.94;4978193;28;20035;-68
2021/12/08 12:10:12;;;;;;;10.63;1.98;;;;;;;6.03;72.64;99522.16;4967922;28;20023;-68
2021/12/08 12:12:40;;;;;;;8.98;1.85;;;;;;;6.06;72.78;99532.13;4983204;28;20476;-68
2021/12/08 12:15:11;;;;;;;11.35;1.35;;;;;;;5.89;73.70;99536.38;4984771;28;20107;-68
2021/12/08 12:17:37;;;;;;;11.00;1.83;;;;;;;5.97;73.42;99530.47;4979413;28;20396;-68
2021/12/08 12:20:12;;;;;;;12.23;1.63;;;;;;;5.90;74.22;99540.56;4985981;28;20027;-68
2021/12/08 12:22:44;;;;;;;12.50;2.20;;;;;;;5.97;72.47;99533.88;4986659;28;20053;-69
2021/12/08 12:25:31;;;;;;;7.35;1.40;;;;;;;6.10;72.29;99530.03;4986737;28;20070;-68
2021/12/08 12:28:19;;;;;;;15.02;1.95;;;;;;;6.09;71.68;99521.53;4981473;28;20404;-68
2021/12/08 12:31:17;;;;;;;15.02;2.95;;;;;;;6.13;72.19;99525.38;4995710;28;20031;-68
2021/12/08 12:33:44;;;;;;;14.25;1.35;;;;;;;6.07;72.65;99530.38;4986051;28;20092;-69
2021/12/08 12:36:19;;;;;;;7.53;2.45;;;;;;;6.06;71.19;99523.59;4962661;28;20444;-70
2021/12/08 12:38:44;;;;;;;8.88;1.25;;;;;;;5.98;71.06;99524.38;4985106;28;20042;-67
2021/12/08 12:41:30;;;;;;;18.77;1.55;;;;;;;5.95;71.30;99542.66;4981810;28;20492;-69